Home > Products > Valid Products > TAF

000
FTUS45 KRIW 310527
TAFLND
TAF
KLND 310527Z 3106/0106 31006KT P6SM SCT030 BKN050
     FM311600 VRB05KT P6SM SCT050
     FM311900 05007KT P6SM SCT060
     FM010300 VRB05KT P6SM SKC=



000
FTUS45 KRIW 310527
TAFWRL
TAF
KWRL 310527Z 3106/0106 33007KT P6SM BKN080
     FM311100 VRB05KT P6SM SCT080
     FM311800 34012G18KT P6SM SCT080
     FM010200 33006KT P6SM FEW080
     FM010500 VRB05KT P6SM SKC=



000
FTUS45 KRIW 310527
TAFCOD
TAF
KCOD 310527Z 3106/0106 35007KT P6SM BKN045
     FM311100 VRB05KT P6SM SCT050
     FM311600 02011KT P6SM SCT060
     FM312000 02011KT P6SM VCSH BKN060
     FM010200 36008KT P6SM SCT070
      AMD LTD TO CLD VIS AND WIND=



000
FTUS45 KRIW 310527
TAFRIW
TAF
KRIW 310527Z 3106/0106 05008KT P6SM SCT050 BKN060
     FM311100 36005KT P6SM BKN050
     FM311600 01010KT P6SM SCT050
     FM010200 05009KT P6SM FEW060=



000
FTUS45 KRIW 310527
TAFCPR
TAF
KCPR 310527Z 3106/0106 05010KT P6SM SCT030 OVC045
     FM311100 31006KT P6SM SCT035 OVC045
     FM311600 31008KT P6SM SCT040
     FM311800 31014G22KT P6SM SCT050
     FM010000 01011KT P6SM FEW060
     FM010400 06006KT P6SM SKC=



000
FTUS45 KRIW 310527
TAFRKS
TAF
KRKS 310527Z 3106/0106 05010KT P6SM SKC
     FM311000 06008KT P6SM FEW050
     FM311700 35006KT P6SM SCT060
     FM010200 04010KT P6SM FEW060=



000
FTUS45 KRIW 310527
TAFBPI
TAF
KBPI 310527Z 3106/0106 34006KT P6SM SKC
     FM311100 VRB05KT P6SM SKC
     FM311900 31012G18KT P6SM FEW070
     FM010100 33006KT P6SM SKC=



000
FTUS45 KRIW 310527
TAFJAC
TAF
KJAC 310527Z 3106/0106 36006KT P6SM SCT080
     FM311300 VRB05KT P6SM SKC
     FM311900 31006KT P6SM FEW070
     FM312300 29009KT P6SM FEW070
     FM010200 36006KT P6SM SKC
      AMD LTD TO CLD VIS AND WIND=



000
FTUS45 KRIW 310110 AAA
TAFCPR
TAF AMD
KCPR 310110Z 3101/3124 01015G25KT P6SM SCT045 SCT080
     FM310400 03011KT P6SM VCSH BKN045
     FM310700 36008KT P6SM BKN045
     FM311600 31014G22KT P6SM SCT060=



000
FTUS45 KRIW 302322
TAFCPR
TAF
KCPR 302322Z 3100/3124 36011KT P6SM SCT045 SCT080
     FM310200 03011KT P6SM VCSH BKN045
     FM310600 31008KT P6SM BKN045
     FM311600 31014G22KT P6SM SCT060=



000
FTUS45 KRIW 302322
TAFRIW
TAF
KRIW 302322Z 3100/3124 01015G25KT P6SM SCT070 BKN100
     FM310600 02009KT P6SM BKN045
     FM311500 03008KT P6SM FEW060=



000
FTUS45 KRIW 302322
TAFJAC
TAF
KJAC 302322Z 3100/3124 24015G25KT P6SM VCSH BKN070
     FM310100 29009KT P6SM FEW070
     FM310500 36006KT P6SM SKC
     FM311600 VRB06KT P6SM FEW070
      AMD LTD TO CLD VIS AND WIND=



000
FTUS45 KRIW 302322
TAFRKS
TAF
KRKS 302322Z 3100/3124 28017G27KT P6SM FEW070
     FM310200 29010KT P6SM SKC
     FM310500 05011KT P6SM FEW040
     FM311900 31008KT P6SM SCT060=



000
FTUS45 KRIW 302322
TAFLND
TAF
KLND 302322Z 3100/3124 30012G20KT P6SM SCT060 BKN090
     FM310200 36010KT P6SM SCT050 BKN100
     FM310800 29005KT P6SM BKN040
     FM311500 05005KT P6SM FEW060=



000
FTUS45 KRIW 302322
TAFCOD
TAF
KCOD 302322Z 3100/3124 01012G20KT P6SM VCSH BKN050
     FM310200 36008KT P6SM BKN040
     FM310600 28011KT P6SM SCT070
     FM311600 02011KT P6SM SCT060
     FM312000 02011KT P6SM VCSH BKN060
      AMD LTD TO CLD VIS AND WIND=



000
FTUS45 KRIW 302322
TAFBPI
TAF
KBPI 302322Z 3100/3124 31015G25KT P6SM SCT060
     FM310200 34008KT P6SM SKC
     FM310700 VRB05KT P6SM SKC
     FM311900 31012G18KT P6SM FEW080=



000
FTUS45 KRIW 302322
TAFWRL
TAF
KWRL 302322Z 3100/3124 35014G24KT P6SM VCSH BKN070
     FM310200 33010KT P6SM BKN070
     FM310700 VRB05KT P6SM BKN060
     FM311600 34012G18KT P6SM SCT080=



000
FTUS45 KRIW 301855 AAB
TAFRIW
TAF AMD
KRIW 301855Z 3019/3118 33010G15KT P6SM VCTS SCT060CB BKN100
      TEMPO 3019/3020 VRB15G25KT -TSRA BKN060CB
     FM310000 01015G25KT P6SM VCSH SCT050 BKN100
     FM310300 01014G20KT P6SM BKN060
     FM310600 02009KT P6SM BKN045
     FM311500 03008KT P6SM FEW060=



000
FTUS45 KRIW 300533
TAFBPI
TAF
KBPI 300533Z 3006/3106 VRB06KT P6SM VCSH SCT060 BKN080
     FM300900 VRB05KT P6SM BKN080
     FM301300 30006KT P6SM FEW080
     FM301900 30015G25KT P6SM FEW070
     FM310200 34008KT P6SM SKC=



000
FTUS45 KRIW 300533
TAFRIW
TAF
KRIW 300533Z 3006/3106 28010KT P6SM VCSH BKN090
     FM300800 28010KT P6SM BKN110
     FM301500 25008KT P6SM SCT110
     FM302200 34015G25KT P6SM VCSH SCT070 BKN100
     FM310400 01011KT P6SM SCT050=



000
FTUS45 KRIW 300533
TAFCOD
TAF
KCOD 300533Z 3006/3106 23007KT P6SM VCSH BKN080
     FM301000 VRB05KT P6SM SCT080 BKN150
     FM301500 02008KT P6SM SCT060 BKN100
     FM301800 02015G24KT P6SM VCTS SCT050CB BKN070
     FM302100 01012G20KT P6SM VCSH BKN050
     FM310200 36008KT P6SM BKN035
      AMD LTD TO CLD VIS AND WIND=



000
FTUS45 KRIW 300533
TAFWRL
TAF
KWRL 300533Z 3006/3106 VRB05KT P6SM SCT100 BKN200
     FM301000 VRB05KT P6SM SCT100
     FM302000 35014G22KT P6SM VCTS SCT060CB BKN090
     FM310000 35013KT P6SM VCSH BKN070
     FM310200 33010KT P6SM BKN070=



000
FTUS45 KRIW 300533
TAFRKS
TAF
KRKS 300533Z 3006/3106 26008KT P6SM VCSH BKN090
     FM301100 22006KT P6SM BKN100
     FM301600 27012G18KT P6SM FEW120
     FM302000 28017G27KT P6SM FEW070
     FM310200 29010KT P6SM SKC
     FM310500 05011KT P6SM SKC=



000
FTUS45 KRIW 300533
TAFCPR
TAF
KCPR 300533Z 3006/3106 VRB05KT P6SM SCT090 BKN150
     FM300900 23011KT P6SM SCT100 BKN150
     FM302000 30012G18KT P6SM SCT090
     FM302300 33012G20KT P6SM VCTS SCT050CB BKN070
     FM310200 36011KT P6SM BKN050=



000
FTUS45 KRIW 300533
TAFLND
TAF
KLND 300533Z 3006/3106 28010G18KT P6SM VCSH SCT070 BKN090
     FM300900 VRB06KT P6SM BKN100
     FM301500 VRB04KT P6SM SCT100
     FM302100 32010KT P6SM SCT080
     FM310100 36012KT P6SM FEW080=



000
FTUS45 KRIW 300533
TAFJAC
TAF
KJAC 300533Z 3006/3106 23010KT P6SM SCT080
     FM301600 20012G18KT P6SM FEW060
     FM302100 25015G25KT P6SM SCT070
     FM310200 29009KT P6SM FEW070
     FM310500 36006KT P6SM SKC
      AMD LTD TO CLD VIS AND WIND=



000
FTUS45 KRIW 291724
TAFJAC
TAF
KJAC 291724Z 2918/3018 20007KT P6SM SCT070
     FM292000 18010KT P6SM VCTS SCT060CB BKN090
     FM300100 19006KT P6SM VCSH SCT060 BKN080
     FM300500 18006KT P6SM BKN080
     FM301600 20012G18KT P6SM FEW060
      AMD LTD TO CLD VIS AND WIND=



000
FTUS45 KRIW 291724
TAFCOD
TAF
KCOD 291724Z 2918/3018 22006KT P6SM SKC
     FM291900 15007KT P6SM SCT080
     FM300300 21006KT P6SM SCT100 BKN200
     FM301500 02008KT P6SM SCT060 BKN100
      AMD LTD TO CLD VIS AND WIND=



000
FTUS45 KRIW 291724
TAFBPI
TAF
KBPI 291724Z 2918/3018 24006KT P6SM SCT100 BKN200
     FM292100 VRB10G16KT P6SM VCTS SCT060CB BKN100
     FM300100 VRB06KT P6SM VCSH SCT060 BKN080
     FM300500 VRB05KT P6SM FEW060 BKN080
     FM301300 30006KT P6SM SKC=



000
FTUS45 KRIW 291724
TAFRIW
TAF
KRIW 291724Z 2918/3018 VRB05KT P6SM SCT090
     FM300000 VRB05KT P6SM BKN090
     FM300400 30011KT P6SM BKN150=



000
FTUS45 KRIW 291724
TAFRKS
TAF
KRKS 291724Z 2918/3018 23007KT P6SM SCT100
     FM292100 VRB10G16KT P6SM VCTS SCT060CB BKN100
     FM300100 23006KT P6SM VCSH SCT060 BKN090
     FM300600 22006KT P6SM BKN090
     FM301600 27012G18KT P6SM FEW120=



000
FTUS45 KRIW 291724
TAFCPR
TAF
KCPR 291724Z 2918/3018 23008KT P6SM FEW090
     FM300300 24008KT P6SM BKN090
     FM300900 23011KT P6SM SCT100 BKN150=



000
FTUS45 KRIW 291724
TAFWRL
TAF
KWRL 291724Z 2918/3018 VRB05KT P6SM FEW090
     FM292000 VRB05KT P6SM SCT090
     FM300300 VRB05KT P6SM BKN090
     FM301000 VRB05KT P6SM SCT100=



000
FTUS45 KRIW 291724
TAFLND
TAF
KLND 291724Z 2918/3018 VRB05KT P6SM SCT090
     FM300000 VRB05KT P6SM VCSH SCT070 BKN090
     FM300500 VRB05KT P6SM BKN090
     FM301000 VRB04KT P6SM BKN150=



000
FTUS45 KRIW 291120
TAFCOD
TAF
KCOD 291120Z 2912/3012 22006KT P6SM SKC
     FM291900 15007KT P6SM SCT080
     FM300300 21006KT P6SM SCT100
      AMD LTD TO CLD VIS AND WIND=



000
FTUS45 KRIW 291120
TAFJAC
TAF
KJAC 291120Z 2912/3012 VRB04KT P6SM VCFG FEW003
     FM291600 20007KT P6SM SCT070
     FM292000 18010KT P6SM VCTS SCT060CB BKN090
     FM300100 19006KT P6SM VCSH SCT060 BKN080
     FM300500 18006KT P6SM BKN080
      AMD LTD TO CLD VIS AND WIND=



000
FTUS45 KRIW 291120
TAFBPI
TAF
KBPI 291120Z 2912/3012 VRB05KT P6SM FEW100
     FM291700 24006KT P6SM SCT100 BKN200
     FM292100 VRB10G16KT P6SM VCTS SCT060CB BKN100
     FM300100 VRB06KT P6SM VCSH SCT060 BKN080
     FM300500 VRB05KT P6SM FEW060 BKN080=



000
FTUS45 KRIW 291120
TAFCPR
TAF
KCPR 291120Z 2912/3012 24007KT P6SM VCFG FEW003
     FM291400 23008KT P6SM FEW090
     FM300300 24008KT P6SM BKN090
     FM300900 24006KT P6SM SCT100=



000
FTUS45 KRIW 291120
TAFWRL
TAF
KWRL 291120Z 2912/3012 18006KT P6SM VCFG FEW003
     FM291400 VRB05KT P6SM FEW090
     FM292000 VRB05KT P6SM SCT090
     FM300300 VRB05KT P6SM BKN090
     FM301000 VRB05KT P6SM SCT100=



000
FTUS45 KRIW 291120
TAFRKS
TAF
KRKS 291120Z 2912/3012 23007KT P6SM SCT100
     FM292100 VRB10G16KT P6SM VCTS SCT060CB BKN100
     FM300100 23006KT P6SM VCSH SCT060 BKN090
     FM300600 22006KT P6SM BKN090=



000
FTUS45 KRIW 291120
TAFRIW
TAF
KRIW 291120Z 2912/3012 32008KT P6SM SKC
     FM291400 VRB05KT P6SM SKC
     FM291800 VRB05KT P6SM SCT090
     FM300000 VRB05KT P6SM BKN090=



000
FTUS45 KRIW 291120
TAFLND
TAF
KLND 291120Z 2912/3012 VRB05KT P6SM SKC
     FM291700 VRB05KT P6SM SCT090
     FM300000 VRB05KT P6SM VCSH SCT070 BKN090
     FM300500 VRB05KT P6SM BKN090=



000
FTUS45 KRIW 282323
TAFCPR
TAF
KCPR 282323Z 2900/2924 04006KT P6SM SCT100
     FM290600 VRB05KT P6SM SKC
     FM291400 22010KT P6SM FEW100
     FM292100 29008KT P6SM SCT070=



000
FTUS45 KRIW 282323
TAFBPI
TAF
KBPI 282323Z 2900/2924 28011KT P6SM SCT080
     FM290100 33008KT P6SM FEW090
     FM290600 VRB05KT P6SM SKC
     FM291700 24006KT P6SM SCT100 BKN200
     FM292100 VRB10G16KT P6SM VCTS SCT060CB BKN100=



000
FTUS45 KRIW 282323
TAFLND
TAF
KLND 282323Z 2900/2924 27009KT P6SM SCT090
     FM290200 24006KT P6SM FEW090
     FM290600 VRB05KT P6SM SKC
     FM292000 VRB06KT P6SM SCT080=



000
FTUS45 KRIW 282323
TAFJAC
TAF
KJAC 282323Z 2900/2924 27010G18KT P6SM FEW090
     FM290200 21006KT P6SM FEW090
     FM290600 VRB05KT P6SM SKC
     FM291800 VRB05KT P6SM SCT070
     FM292000 18010KT P6SM VCTS SCT060CB BKN090
      AMD LTD TO CLD VIS AND WIND=



000
FTUS45 KRIW 282323
TAFRIW
TAF
KRIW 282323Z 2900/2924 29012KT P6SM SCT090
     FM290300 29010KT P6SM FEW100
     FM291600 VRB05KT P6SM SKC
     FM292100 VRB06KT P6SM FEW080 SCT200=



000
FTUS45 KRIW 282323
TAFCOD
TAF
KCOD 282323Z 2900/2924 VRB06KT P6SM VCSH SCT070 BKN110
     FM290200 VRB06KT P6SM SCT110
     FM292000 15007KT P6SM SCT080
      AMD LTD TO CLD VIS AND WIND=



000
FTUS45 KRIW 282323
TAFRKS
TAF
KRKS 282323Z 2900/2924 28012G20KT P6SM VCSH SCT060 BKN080
     FM290200 26010KT P6SM SCT090
     FM290700 21005KT P6SM FEW090
     FM291800 25007KT P6SM SCT100 BKN200
     FM292100 VRB10G16KT P6SM VCTS SCT060CB BKN120=



000
FTUS45 KRIW 282323
TAFWRL
TAF
KWRL 282323Z 2900/2924 35006KT P6SM SCT080
     FM290300 VRB05KT P6SM FEW080=



000
FTUS45 KRIW 281934 AAA
TAFRKS
TAF AMD
KRKS 281934Z 2820/2918 26012G20KT P6SM VCSH SCT060 BKN080
     FM290200 26010KT P6SM SCT090
     FM290700 21005KT P6SM FEW090=



000
FTUS45 KRIW 281705 AAA
TAFCPR
TAF AMD
KCPR 281705Z 2817/2912 28011KT P6SM VCTS SCT050CB BKN090
      TEMPO 2817/2820 VRB12G22KT -TSRA BKN050CB
     FM290000 36010KT P6SM BKN100
     FM290200 04006KT P6SM SCT100
     FM290600 VRB05KT P6SM SCT100=



    US Dept of Commerce
    National Oceanic and Atmospheric Administration
    National Weather Service
    1325 East West Highway
    Silver Spring, MD 20910
    Page Author: NWS Internet Services Team
Disclaimer
Information Quality
Credits
Glossary
Privacy Policy
Freedom of Information Act (FOIA)
About Us
Career Opportunities